SWR4WP LSZH-EDDL
Flight info
| Callsign | SWR4WP |
|---|---|
| Flight time | N/A |
| Altitude | 30000 |
| Route | VEBIT T10 TORPA DCT EDOPI DCT GIVOR DCT SORAL DCT IBERA DCT DIK/N0451F310 N853 ARCKY T853 NVO T857 BIKMU BIKMU1A |
| Aircraft | A321/M-SDE3FGHIRWY/LB1 |
Departure
| Time | N/A |
|---|---|
| Airport | Zürich Airport (LSZH) |
Arrival
| Time | 2026-02-20 09:20 |
|---|---|
| Airport | Düsseldorf Airport (EDDL) |
| Time | Latitude | Longitude | Altitude | Speed | Heading |
|---|---|---|---|---|---|
| 2026-02-20 09:01 | 50.29811 | 6.14324 | 30139 ft | 419 kts | 12° |
| 2026-02-20 09:01 | 50.35081 | 6.18492 | 29940 ft | 433 kts | 27° |
| 2026-02-20 09:02 | 50.37620 | 6.21095 | 28556 ft | 443 kts | 27° |
| 2026-02-20 09:02 | 50.40229 | 6.23767 | 27149 ft | 451 kts | 28° |
| 2026-02-20 09:02 | 50.42859 | 6.26474 | 25495 ft | 456 kts | 28° |
| 2026-02-20 09:02 | 50.45509 | 6.29215 | 24055 ft | 458 kts | 29° |
| 2026-02-20 09:03 | 50.48118 | 6.31928 | 23323 ft | 442 kts | 30° |
| 2026-02-20 09:03 | 50.50642 | 6.34522 | 22566 ft | 427 kts | 28° |
| 2026-02-20 09:03 | 50.53117 | 6.36907 | 21885 ft | 411 kts | 27° |
| 2026-02-20 09:03 | 50.55578 | 6.39152 | 21214 ft | 408 kts | 26° |
| 2026-02-20 09:04 | 50.58034 | 6.41332 | 20558 ft | 405 kts | 26° |
| 2026-02-20 09:04 | 50.60478 | 6.43499 | 19924 ft | 402 kts | 26° |
| 2026-02-20 09:04 | 50.62890 | 6.45663 | 19311 ft | 399 kts | 26° |
| 2026-02-20 09:04 | 50.65281 | 6.47840 | 18688 ft | 397 kts | 27° |
| 2026-02-20 09:05 | 50.67656 | 6.50032 | 18042 ft | 394 kts | 27° |
| 2026-02-20 09:05 | 50.70001 | 6.52212 | 17435 ft | 392 kts | 27° |
| 2026-02-20 09:05 | 50.72345 | 6.54395 | 16848 ft | 391 kts | 27° |
| 2026-02-20 09:05 | 50.74676 | 6.56568 | 16274 ft | 391 kts | 28° |
| 2026-02-20 09:06 | 50.77015 | 6.58755 | 15689 ft | 391 kts | 28° |
| 2026-02-20 09:06 | 50.79352 | 6.60936 | 15154 ft | 391 kts | 27° |
| 2026-02-20 09:06 | 50.81791 | 6.62801 | 14609 ft | 389 kts | 19° |
| 2026-02-20 09:06 | 50.84366 | 6.64029 | 14085 ft | 386 kts | 9° |
| 2026-02-20 09:07 | 50.87011 | 6.64675 | 13524 ft | 385 kts | 5° |
| 2026-02-20 09:07 | 50.89655 | 6.65221 | 13015 ft | 383 kts | 5° |
| 2026-02-20 09:07 | 50.92284 | 6.65777 | 12503 ft | 381 kts | 5° |
| 2026-02-20 09:07 | 50.94893 | 6.66337 | 11986 ft | 378 kts | 5° |
| 2026-02-20 09:08 | 50.97483 | 6.66895 | 11505 ft | 374 kts | 5° |
| 2026-02-20 09:08 | 51.00011 | 6.67447 | 11362 ft | 359 kts | 5° |
| 2026-02-20 09:08 | 51.02433 | 6.67867 | 11234 ft | 343 kts | 359° |
| 2026-02-20 09:08 | 51.04765 | 6.67759 | 11109 ft | 329 kts | 354° |
| 2026-02-20 09:09 | 51.06995 | 6.67565 | 10976 ft | 317 kts | 354° |
| 2026-02-20 09:09 | 51.09155 | 6.67398 | 10856 ft | 305 kts | 357° |
| 2026-02-20 09:09 | 51.11239 | 6.67658 | 10661 ft | 300 kts | 8° |
| 2026-02-20 09:09 | 51.13239 | 6.68483 | 10543 ft | 296 kts | 14° |
| 2026-02-20 09:10 | 51.15212 | 6.69397 | 10484 ft | 296 kts | 13° |
| 2026-02-20 09:10 | 51.17186 | 6.70300 | 10351 ft | 296 kts | 13° |
| 2026-02-20 09:10 | 51.19165 | 6.71199 | 10230 ft | 296 kts | 13° |
| 2026-02-20 09:10 | 51.21140 | 6.72093 | 9949 ft | 298 kts | 13° |
| 2026-02-20 09:11 | 51.23141 | 6.73000 | 9491 ft | 297 kts | 13° |
| 2026-02-20 09:11 | 51.25126 | 6.73903 | 8970 ft | 300 kts | 14° |
| 2026-02-20 09:11 | 51.27105 | 6.74814 | 8679 ft | 294 kts | 15° |
| 2026-02-20 09:11 | 51.28966 | 6.76156 | 8271 ft | 295 kts | 31° |
| 2026-02-20 09:12 | 51.30618 | 6.78049 | 7752 ft | 292 kts | 35° |
| 2026-02-20 09:12 | 51.32253 | 6.79981 | 7130 ft | 291 kts | 35° |
| 2026-02-20 09:12 | 51.33872 | 6.81888 | 6541 ft | 289 kts | 36° |
| 2026-02-20 09:12 | 51.35479 | 6.83782 | 5923 ft | 286 kts | 35° |
| 2026-02-20 09:13 | 51.37063 | 6.85648 | 5441 ft | 282 kts | 35° |
| 2026-02-20 09:13 | 51.38627 | 6.87489 | 4952 ft | 280 kts | 35° |
| 2026-02-20 09:13 | 51.40198 | 6.89341 | 4351 ft | 278 kts | 35° |
| 2026-02-20 09:13 | 51.41735 | 6.91159 | 3957 ft | 270 kts | 35° |
| 2026-02-20 09:14 | 51.43177 | 6.92865 | 3911 ft | 246 kts | 35° |
| 2026-02-20 09:14 | 51.44445 | 6.94505 | 3835 ft | 230 kts | 49° |
| 2026-02-20 09:14 | 51.45148 | 6.96746 | 3780 ft | 226 kts | 82° |
| 2026-02-20 09:14 | 51.45036 | 6.99197 | 3730 ft | 219 kts | 115° |
| 2026-02-20 09:15 | 51.44226 | 7.01111 | 3696 ft | 198 kts | 144° |
| 2026-02-20 09:15 | 51.43047 | 7.02124 | 3657 ft | 191 kts | 170° |
| 2026-02-20 09:15 | 51.41754 | 7.02200 | 3604 ft | 185 kts | 194° |
| 2026-02-20 09:15 | 51.40593 | 7.01439 | 3576 ft | 181 kts | 217° |
| 2026-02-20 09:16 | 51.39720 | 7.00027 | 3545 ft | 179 kts | 233° |
| 2026-02-20 09:16 | 51.38974 | 6.98440 | 3369 ft | 178 kts | 233° |
| 2026-02-20 09:16 | 51.38231 | 6.96859 | 3143 ft | 177 kts | 233° |
| 2026-02-20 09:16 | 51.37497 | 6.95301 | 2899 ft | 173 kts | 233° |
| 2026-02-20 09:17 | 51.36786 | 6.93797 | 2658 ft | 163 kts | 233° |
| 2026-02-20 09:17 | 51.36133 | 6.92417 | 2450 ft | 152 kts | 234° |
| 2026-02-20 09:17 | 51.35502 | 6.91084 | 2235 ft | 149 kts | 233° |
| 2026-02-20 09:17 | 51.34883 | 6.89777 | 2030 ft | 146 kts | 233° |
| 2026-02-20 09:18 | 51.34272 | 6.88487 | 1815 ft | 145 kts | 232° |
| 2026-02-20 09:18 | 51.33670 | 6.87217 | 1619 ft | 145 kts | 232° |
| 2026-02-20 09:18 | 51.33083 | 6.85978 | 1415 ft | 137 kts | 231° |
| 2026-02-20 09:18 | 51.32511 | 6.84773 | 1202 ft | 135 kts | 230° |
| 2026-02-20 09:19 | 51.31943 | 6.83576 | 1006 ft | 135 kts | 229° |
| 2026-02-20 09:19 | 51.31372 | 6.82374 | 819 ft | 137 kts | 228° |
| 2026-02-20 09:19 | 51.30793 | 6.81156 | 633 ft | 139 kts | 229° |
| 2026-02-20 09:19 | 51.30207 | 6.79923 | 450 ft | 140 kts | 227° |
| 2026-02-20 09:20 | 51.29623 | 6.78682 | 222 ft | 139 kts | 228° |
| 2026-02-20 09:20 | 51.29047 | 6.77471 | 132 ft | 130 kts | 227° |
| 2026-02-20 09:20 | 51.28605 | 6.76594 | 127 ft | 75 kts | 232° |
| 2026-02-20 09:20 | 51.28384 | 6.76119 | 120 ft | 28 kts | 233° |
| 2026-02-20 09:21 | 51.28286 | 6.76048 | 126 ft | 8 kts | 180° |
| 2026-02-20 09:21 | 51.28270 | 6.76049 | 126 ft | 0 kts | 175° |
| 2026-02-20 09:21 | 51.28266 | 6.76050 | 126 ft | 4 kts | 175° |
| 2026-02-20 09:21 | 51.28235 | 6.76059 | 123 ft | 5 kts | 167° |
| 2026-02-20 09:22 | 51.28193 | 6.76108 | 122 ft | 8 kts | 112° |
| 2026-02-20 09:22 | 51.28200 | 6.76172 | 124 ft | 3 kts | 72° |
| 2026-02-20 09:22 | 51.28201 | 6.76179 | 124 ft | 0 kts | 75° |